createdAt,value
2022-10-06T17:18:34.792Z,10.85
2022-10-06T17:23:29.051Z,12.25
2022-10-06T17:28:23.136Z,14.52
2022-10-06T17:33:17.959Z,13.93
2022-10-06T17:38:12.859Z,13.80
2022-10-06T17:43:07.126Z,13.52
2022-10-06T17:48:01.555Z,13.35
2022-10-06T17:52:55.676Z,13.68
2022-10-06T17:57:49.684Z,13.70
2022-10-06T18:02:43.936Z,14.45
2022-10-06T18:07:38.935Z,16.33
2022-10-06T18:12:36.472Z,13.48
2022-10-06T18:17:30.646Z,14.38
2022-10-06T18:22:24.536Z,14.55
2022-10-06T18:27:18.721Z,15.13
2022-10-06T18:33:44.811Z,15.30
2022-10-06T18:37:26.652Z,14.85
2022-10-06T18:42:20.754Z,14.57
2022-10-06T18:47:33.174Z,13.40
2022-10-06T18:52:26.972Z,13.50
2022-10-06T18:57:25.151Z,14.18
2022-10-06T19:02:21.756Z,14.57
2022-10-06T19:07:16.375Z,14.52
2022-10-06T19:12:10.609Z,15.45
2022-10-06T19:17:24.981Z,16.63
2022-10-06T19:22:25.235Z,15.98
2022-10-06T19:27:20.839Z,15.88
2022-10-06T19:32:19.365Z,16.70
2022-10-06T19:37:13.178Z,16.27
2022-10-06T19:42:25.110Z,15.88
2022-10-06T19:47:18.288Z,16.30
2022-10-06T19:52:13.494Z,17.45
2022-10-06T19:57:07.737Z,15.00
2022-10-06T20:02:03.049Z,17.02
2022-10-06T20:06:56.214Z,18.05
2022-10-06T20:11:51.093Z,17.45
2022-10-06T20:16:45.489Z,16.80
2022-10-06T20:21:40.662Z,15.48
2022-10-06T20:26:36.117Z,15.70
2022-10-06T20:31:31.348Z,14.98
2022-10-06T20:36:44.560Z,15.90
2022-10-06T20:41:39.317Z,15.73
2022-10-06T20:46:34.490Z,14.77
2022-10-06T20:51:27.903Z,17.15
2022-10-06T20:56:22.612Z,16.83
2022-10-06T21:01:16.542Z,18.50
2022-10-06T21:06:10.841Z,16.83
2022-10-06T21:11:07.176Z,20.50
2022-10-06T21:16:01.292Z,21.00
2022-10-06T21:20:58.410Z,20.70
2022-10-06T21:25:52.742Z,21.83
2022-10-06T21:30:52.801Z,21.67
2022-10-06T21:35:47.434Z,22.38
2022-10-06T21:40:42.414Z,22.30
2022-10-06T21:45:39.515Z,21.35
2022-10-06T21:50:34.893Z,24.17
2022-10-06T21:55:30.852Z,21.95
2022-10-06T22:00:25.659Z,23.02
2022-10-06T22:05:20.130Z,20.63
2022-10-06T22:10:14.670Z,20.42
2022-10-06T22:15:10.117Z,20.85
2022-10-06T22:20:07.014Z,21.65
2022-10-06T22:25:01.429Z,21.25
2022-10-06T22:29:56.522Z,22.13
2022-10-06T22:34:51.434Z,21.88
2022-10-06T22:39:46.183Z,21.23
2022-10-06T22:44:40.365Z,21.35
2022-10-06T22:49:34.456Z,20.33
2022-10-06T22:54:31.498Z,21.67
2022-10-06T22:59:25.709Z,22.95
2022-10-06T23:04:20.413Z,21.00
2022-10-06T23:09:15.372Z,20.05
2022-10-06T23:14:09.808Z,25.02
2022-10-06T23:19:04.077Z,25.15
2022-10-06T23:24:01.889Z,24.73
2022-10-06T23:29:03.560Z,22.23
2022-10-06T23:33:58.053Z,23.40
2022-10-06T23:38:53.162Z,21.90
2022-10-06T23:43:48.136Z,23.83
2022-10-06T23:48:41.910Z,23.52
2022-10-06T23:53:37.134Z,25.08
2022-10-06T23:58:31.686Z,22.77
